Time;durP1;ratioP1;P1;durP2;ratioP2;P2;SDS_P1;SDS_P2;PMS_P1;PMS_P2;Temp;Humidity;BMP_temperature;BMP_pressure;BME280_temperature;BME280_humidity;BME280_pressure;Samples;Min_cycle;Max_cycle;Signal;HPM_P1;HPM_P2
2022/06/21 00:00:45;;;;;;;8.73;2.90;;;;;;;9.45;73.16;100690.19;5117833;28;20097;-71
2022/06/21 00:03:16;;;;;;;6.20;2.28;;;;;;;9.54;72.84;100690.13;5117010;28;20043;-71
2022/06/21 00:05:46;;;;;;;9.18;2.53;;;;;;;9.53;73.00;100682.22;5117687;28;20104;-71
2022/06/21 00:08:17;;;;;;;5.60;2.60;;;;;;;9.55;72.89;100685.59;5117280;28;20098;-72
2022/06/21 00:10:45;;;;;;;9.93;2.90;;;;;;;9.55;73.17;100690.97;5117426;28;20061;-71
2022/06/21 00:13:15;;;;;;;9.77;3.10;;;;;;;9.54;73.08;100681.22;5117268;28;20093;-71
2022/06/21 00:15:43;;;;;;;8.13;2.80;;;;;;;9.52;72.67;100680.56;5116814;28;20138;-71
2022/06/21 00:18:16;;;;;;;7.53;2.80;;;;;;;9.54;72.76;100684.78;5117344;28;20510;-71
2022/06/21 00:20:43;;;;;;;8.13;2.80;;;;;;;9.52;72.70;100684.06;5098694;28;20139;-71
2022/06/21 00:23:20;;;;;;;8.70;3.00;;;;;;;9.51;72.66;100690.44;5116716;28;20130;-71
2022/06/21 00:25:47;;;;;;;7.85;3.15;;;;;;;9.52;72.78;100685.91;5116536;28;20060;-71
2022/06/21 00:28:15;;;;;;;6.38;2.60;;;;;;;9.46;72.96;100692.72;5116498;28;20054;-71
2022/06/21 00:30:43;;;;;;;8.00;2.75;;;;;;;9.44;73.31;100684.00;5116917;28;20452;-71
2022/06/21 00:33:12;;;;;;;7.82;3.30;;;;;;;9.42;73.21;100682.47;5116978;28;20496;-71
2022/06/21 00:35:45;;;;;;;9.30;3.10;;;;;;;9.41;73.37;100686.16;5117147;28;20052;-71
2022/06/21 00:38:18;;;;;;;8.65;3.40;;;;;;;9.47;73.14;100689.06;5117067;28;20135;-71
2022/06/21 00:40:45;;;;;;;11.77;3.67;;;;;;;9.47;73.31;100693.56;5117199;28;20086;-71
2022/06/21 00:43:17;;;;;;;6.10;3.08;;;;;;;9.42;73.52;100687.84;5116788;28;20399;-71
2022/06/21 00:45:47;;;;;;;11.27;3.13;;;;;;;9.41;73.50;100681.63;5116240;28;20138;-71
2022/06/21 00:48:27;;;;;;;8.80;3.55;;;;;;;9.35;73.92;100684.91;5117608;28;20535;-71
2022/06/21 00:51:00;;;;;;;7.43;3.55;;;;;;;9.32;73.58;100688.75;5117985;28;20052;-71
2022/06/21 00:53:32;;;;;;;6.05;2.92;;;;;;;9.33;73.75;100684.22;5117423;28;20451;-70
2022/06/21 00:56:16;;;;;;;;;;;;;;;9.29;73.92;100691.72;5117297;28;20122;-71
2022/06/21 00:58:43;;;;;;;12.18;3.60;;;;;;;9.26;73.83;100691.19;5116750;28;20371;-71
2022/06/21 01:01:27;;;;;;;6.65;2.72;;;;;;;9.27;74.30;100693.72;5116167;28;20146;-71
2022/06/21 01:04:10;;;;;;;9.90;3.40;;;;;;;9.23;74.19;100691.44;5116949;28;20417;-70
2022/06/21 01:07:14;;;;;;;10.23;3.28;;;;;;;9.21;74.41;100688.09;5116407;28;20135;-70
2022/06/21 01:09:57;;;;;;;6.40;3.00;;;;;;;9.22;74.16;100695.13;5116111;28;20134;-70
2022/06/21 01:12:30;;;;;;;6.43;3.28;;;;;;;9.22;74.42;100695.13;5116917;28;20124;-70
2022/06/21 01:15:01;;;;;;;7.93;3.88;;;;;;;9.24;74.70;100706.56;5116124;28;20087;-70
2022/06/21 01:17:30;;;;;;;6.20;3.45;;;;;;;9.16;74.65;100701.94;5116145;28;20540;-70
2022/06/21 01:20:07;;;;;;;9.77;2.95;;;;;;;9.24;74.64;100699.38;5116109;28;20051;-70
2022/06/21 01:22:37;;;;;;;10.35;3.85;;;;;;;9.27;74.16;100708.94;5116122;28;20086;-70
2022/06/21 01:25:20;;;;;;;5.55;3.20;;;;;;;9.15;74.68;100694.88;5116141;27;20139;-70
2022/06/21 01:27:48;;;;;;;11.93;3.47;;;;;;;9.12;74.83;100699.72;5115526;28;20090;-70
2022/06/21 01:30:14;;;;;;;9.40;4.35;;;;;;;9.20;74.72;100689.09;5115866;28;20146;-70
2022/06/21 01:32:41;;;;;;;9.02;3.40;;;;;;;9.14;74.80;100693.22;5116408;28;20059;-72
2022/06/21 01:35:13;;;;;;;9.18;3.05;;;;;;;9.15;74.77;100696.72;5115857;28;20051;-72
2022/06/21 01:37:41;;;;;;;12.98;3.10;;;;;;;9.24;74.66;100694.03;5115650;28;20075;-70
2022/06/21 01:40:25;;;;;;;14.15;4.05;;;;;;;9.12;75.14;100694.34;5097728;28;20074;-70
2022/06/21 01:42:57;;;;;;;5.90;3.35;;;;;;;9.16;75.25;100709.13;5116076;28;20073;-70
2022/06/21 01:45:28;;;;;;;8.25;3.67;;;;;;;9.07;75.45;100695.66;5115208;28;20083;-71
2022/06/21 01:48:00;;;;;;;10.07;3.33;;;;;;;9.11;75.33;100696.19;5115939;28;20130;-70
2022/06/21 01:50:27;;;;;;;8.43;3.33;;;;;;;9.05;75.78;100688.75;5115593;28;20059;-70
2022/06/21 01:52:55;;;;;;;8.52;3.03;;;;;;;9.18;75.01;100694.59;5115291;28;20054;-70
2022/06/21 01:55:34;;;;;;;12.10;3.60;;;;;;;9.15;75.52;100696.72;5115386;28;20047;-70
2022/06/21 01:58:05;;;;;;;10.00;3.53;;;;;;;9.19;74.98;100698.09;5114964;28;20468;-71
2022/06/21 02:00:34;;;;;;;9.80;3.30;;;;;;;9.16;75.62;100701.09;5114876;28;20048;-71
2022/06/21 02:03:09;;;;;;;7.15;3.17;;;;;;;9.16;75.39;100698.41;5114903;28;20328;-71
2022/06/21 02:05:40;;;;;;;6.30;2.92;;;;;;;9.04;75.56;100703.97;5115236;28;20559;-71
2022/06/21 02:08:12;;;;;;;14.38;4.15;;;;;;;9.00;75.75;100710.63;5115547;28;20134;-71
2022/06/21 02:10:47;;;;;;;12.52;3.80;;;;;;;9.06;75.69;100703.84;5115837;28;20139;-71
2022/06/21 02:13:21;;;;;;;10.40;3.72;;;;;;;9.03;75.63;100696.97;5115394;28;20079;-71
2022/06/21 02:15:59;;;;;;;8.65;3.58;;;;;;;9.06;75.39;100688.63;5114464;28;20134;-71
2022/06/21 02:18:29;;;;;;;9.35;3.78;;;;;;;8.98;75.67;100693.88;5115044;28;20048;-71
2022/06/21 02:21:01;;;;;;;12.40;3.53;;;;;;;9.01;75.14;100693.56;5114428;28;20143;-71
2022/06/21 02:23:28;;;;;;;6.75;3.65;;;;;;;8.93;75.43;100701.53;5114681;28;20071;-71
2022/06/21 02:25:56;;;;;;;7.80;3.05;;;;;;;8.92;75.57;100704.34;5114505;28;20139;-71
2022/06/21 02:28:28;;;;;;;8.73;3.60;;;;;;;8.85;76.12;100704.94;5114828;28;20491;-71
2022/06/21 02:30:57;;;;;;;11.18;2.95;;;;;;;8.80;76.10;100701.03;5114672;28;20074;-71
2022/06/21 02:33:31;;;;;;;8.93;3.58;;;;;;;8.89;75.64;100692.13;5114483;28;20048;-72
2022/06/21 02:36:19;;;;;;;10.50;4.65;;;;;;;8.90;75.66;100696.47;5114691;28;20097;-71
2022/06/21 02:38:56;;;;;;;10.38;3.92;;;;;;;8.85;75.83;100698.75;5114556;28;20053;-71
2022/06/21 02:41:25;;;;;;;16.00;3.58;;;;;;;8.87;75.71;100699.44;5114496;28;20146;-71
2022/06/21 02:44:00;;;;;;;8.38;3.65;;;;;;;8.86;75.94;100700.44;5114123;28;20131;-71
2022/06/21 02:46:30;;;;;;;13.45;3.78;;;;;;;8.77;76.02;100709.34;5114468;28;20096;-71
2022/06/21 02:49:07;;;;;;;9.98;3.85;;;;;;;8.80;76.03;100711.72;5114463;28;20471;-71
2022/06/21 02:51:50;;;;;;;8.85;3.45;;;;;;;8.73;76.18;100718.66;5114046;28;20146;-70
2022/06/21 02:54:24;;;;;;;11.32;3.85;;;;;;;8.77;76.06;100712.03;5114515;28;20047;-71
2022/06/21 02:57:22;;;;;;;13.45;3.80;;;;;;;8.78;76.29;100713.69;5114246;28;20087;-71
2022/06/21 02:59:52;;;;;;;9.13;3.58;;;;;;;8.78;76.14;100711.03;5101121;28;20135;-71
2022/06/21 03:02:22;;;;;;;7.47;3.90;;;;;;;8.74;76.25;100715.84;5114077;28;20055;-70
2022/06/21 03:05:14;;;;;;;15.48;4.55;;;;;;;8.74;76.75;100715.00;5114237;28;20039;-71
2022/06/21 03:07:44;;;;;;;13.27;5.18;;;;;;;8.65;76.59;100714.06;5114392;28;20501;-71
2022/06/21 03:10:24;;;;;;;10.80;3.88;;;;;;;8.67;76.94;100712.06;5115962;28;20440;-71
2022/06/21 03:12:59;;;;;;;13.73;4.18;;;;;;;8.70;76.60;100716.28;5118325;28;20082;-70
2022/06/21 03:15:26;;;;;;;7.75;3.58;;;;;;;8.69;76.87;100709.25;5118445;28;20496;-71
2022/06/21 03:18:02;;;;;;;11.32;4.93;;;;;;;8.70;76.92;100710.94;5118154;28;20056;-71
2022/06/21 03:20:30;;;;;;;12.40;3.65;;;;;;;8.69;77.33;100715.44;5118396;28;20069;-70
2022/06/21 03:22:58;;;;;;;13.70;4.50;;;;;;;8.80;76.85;100707.22;5117993;28;20142;-71
2022/06/21 03:25:41;;;;;;;11.85;4.05;;;;;;;8.78;76.93;100713.69;5118078;28;20083;-71
2022/06/21 03:28:28;;;;;;;9.43;3.92;;;;;;;8.82;76.86;100709.75;5118306;28;20535;-71
2022/06/21 03:30:58;;;;;;;11.48;3.83;;;;;;;8.72;77.21;100720.50;5118315;28;20083;-71
2022/06/21 03:33:25;;;;;;;17.33;4.43;;;;;;;8.78;77.12;100724.41;5118996;28;20441;-70
2022/06/21 03:35:52;;;;;;;13.18;3.90;;;;;;;8.75;77.30;100724.72;5117883;28;20138;-70
2022/06/21 03:38:19;;;;;;;12.95;4.20;;;;;;;8.75;77.28;100720.22;5117780;28;20055;-70
2022/06/21 03:43:48;;;;;;;13.23;4.00;;;;;;;8.90;76.82;100731.25;5118454;28;20470;-70
2022/06/21 03:46:21;;;;;;;16.13;4.55;;;;;;;8.95;76.58;100728.94;5117776;28;20142;-70
2022/06/21 03:48:59;;;;;;;14.63;4.47;;;;;;;8.99;76.65;100727.69;5118030;28;20104;-70
2022/06/21 03:51:32;;;;;;;16.38;4.43;;;;;;;9.14;76.46;100724.50;5117557;28;20142;-70
2022/06/21 03:54:46;;;;;;;12.55;5.03;;;;;;;9.17;76.47;100730.38;5117746;28;20134;-70
2022/06/21 03:57:32;;;;;;;8.73;3.88;;;;;;;9.18;76.31;100731.22;5117506;28;20140;-70
2022/06/21 04:00:04;;;;;;;19.60;4.88;;;;;;;9.21;75.89;100733.59;5117726;28;20082;-70
2022/06/21 04:02:38;;;;;;;11.82;3.83;;;;;;;9.35;75.66;100724.25;5117659;28;20491;-70
2022/06/21 04:05:13;;;;;;;10.65;4.28;;;;;;;9.33;75.70;100735.09;5117414;28;20083;-70
2022/06/21 04:07:46;;;;;;;11.05;3.72;;;;;;;9.48;75.35;100749.66;5117496;28;20047;-70
2022/06/21 04:10:25;;;;;;;9.80;3.90;;;;;;;9.45;75.20;100747.28;5117305;28;20131;-70
2022/06/21 04:12:55;;;;;;;12.50;4.65;;;;;;;9.44;75.52;100745.59;5117385;28;20070;-70
2022/06/21 04:15:35;;;;;;;26.45;4.60;;;;;;;9.38;75.64;100748.88;5118206;28;20531;-70
2022/06/21 04:18:11;;;;;;;14.88;4.10;;;;;;;9.34;75.58;100752.84;5117253;28;20134;-70
2022/06/21 04:21:03;;;;;;;12.88;4.22;;;;;;;9.45;75.67;100757.97;5116373;28;20090;-70
2022/06/21 04:23:38;;;;;;;14.13;4.40;;;;;;;9.44;75.78;100756.31;5116858;28;20453;-70
2022/06/21 04:26:15;;;;;;;12.95;4.68;;;;;;;9.50;75.77;100762.88;5134153;27;20107;-70
2022/06/21 04:28:44;;;;;;;13.75;4.75;;;;;;;9.53;76.05;100768.78;5137416;27;20047;-70
2022/06/21 04:31:18;;;;;;;9.25;3.78;;;;;;;9.57;75.76;100756.75;5137718;27;20079;-70
2022/06/21 04:33:56;;;;;;;11.25;3.95;;;;;;;9.60;76.01;100770.84;5137479;27;20059;-70
2022/06/21 04:36:27;;;;;;;11.13;4.40;;;;;;;9.68;75.43;100762.88;5137553;27;20551;-70
2022/06/21 04:39:05;;;;;;;17.20;4.43;;;;;;;9.66;75.67;100773.75;5137283;27;20047;-70
2022/06/21 04:41:37;;;;;;;12.77;4.15;;;;;;;9.68;75.63;100778.94;5137595;27;20067;-70
2022/06/21 04:44:45;;;;;;;14.13;4.22;;;;;;;9.64;75.78;100777.56;5137154;27;20082;-71
2022/06/21 04:47:19;;;;;;;14.18;4.43;;;;;;;9.77;75.49;100776.19;5136831;27;20043;-71
2022/06/21 04:50:04;;;;;;;20.35;4.20;;;;;;;9.80;75.67;100783.09;5137123;27;20051;-72
2022/06/21 04:52:39;;;;;;;12.32;4.07;;;;;;;9.82;75.19;100782.94;5136772;27;20059;-71
2022/06/21 04:55:13;;;;;;;13.93;4.25;;;;;;;9.72;75.65;100781.19;5137246;27;20138;-71
2022/06/21 04:57:40;;;;;;;15.27;4.00;;;;;;;9.78;75.71;100783.22;5137056;27;20093;-71
2022/06/21 05:00:15;;;;;;;15.20;4.05;;;;;;;9.95;74.94;100788.75;5136609;27;20047;-71
2022/06/21 05:03:01;;;;;;;12.35;4.15;;;;;;;9.90;75.33;100797.25;5136864;27;20479;-71
2022/06/21 05:05:34;;;;;;;14.88;4.18;;;;;;;9.90;75.18;100799.09;5136699;27;20047;-71
2022/06/21 05:08:27;;;;;;;18.13;4.50;;;;;;;9.99;75.04;100796.34;5137836;27;20511;-71
2022/06/21 05:10:58;;;;;;;15.43;5.32;;;;;;;10.03;74.80;100800.38;5134239;27;20135;-71
2022/06/21 05:13:33;;;;;;;16.05;4.00;;;;;;;10.20;74.54;100804.03;5137042;27;20123;-71
2022/06/21 05:16:03;;;;;;;16.00;3.90;;;;;;;10.23;74.14;100802.88;5136735;27;20467;-71
2022/06/21 05:18:36;;;;;;;22.05;4.88;;;;;;;10.27;74.23;100806.94;5136857;27;20108;-71
2022/06/21 05:21:17;;;;;;;12.48;4.53;;;;;;;10.21;74.44;100812.94;5136419;27;20134;-71
2022/06/21 05:23:44;;;;;;;14.50;3.72;;;;;;;10.15;74.35;100809.00;5136765;27;20137;-71
2022/06/21 05:26:29;;;;;;;14.75;4.32;;;;;;;10.28;73.81;100814.81;5136003;27;20535;-71
2022/06/21 05:29:03;;;;;;;12.50;3.83;;;;;;;10.21;73.80;100812.94;5136497;27;20134;-72
2022/06/21 05:31:37;;;;;;;14.30;3.70;;;;;;;10.38;73.43;100825.47;5136614;27;20493;-72
2022/06/21 05:34:12;;;;;;;17.52;3.20;;;;;;;10.57;72.94;100826.28;5135567;27;20047;-71
2022/06/21 05:36:41;;;;;;;18.60;5.63;;;;;;;10.56;72.86;100817.41;5136526;27;20383;-72
2022/06/21 05:39:22;;;;;;;23.15;4.88;;;;;;;10.45;72.93;100818.47;5136771;27;20134;-72
2022/06/21 05:41:52;;;;;;;23.30;4.18;;;;;;;10.53;72.43;100817.72;5136168;27;20077;-73
2022/06/21 05:44:34;;;;;;;15.15;4.18;;;;;;;10.59;71.94;100813.56;5136097;27;20479;-72
2022/06/21 05:47:07;;;;;;;14.60;4.32;;;;;;;10.72;71.53;100806.78;5136141;27;20047;-71
2022/06/21 05:49:36;;;;;;;14.23;3.78;;;;;;;10.80;71.49;100819.38;5136238;27;20418;-71
2022/06/21 05:52:10;;;;;;;17.35;3.50;;;;;;;10.72;71.18;100816.63;5136075;27;20075;-72
2022/06/21 05:54:49;;;;;;;15.88;3.80;;;;;;;10.65;71.61;100827.19;5118712;27;20158;-71
2022/06/21 05:57:19;;;;;;;8.85;3.45;;;;;;;10.87;71.18;100831.16;5136382;27;20062;-71
2022/06/21 05:59:46;;;;;;;16.63;4.00;;;;;;;10.81;71.29;100829.13;5135702;27;20047;-71
2022/06/21 06:02:34;;;;;;;9.65;3.28;;;;;;;10.90;70.96;100833.53;5136055;27;20085;-71
2022/06/21 06:05:17;;;;;;;20.55;3.72;;;;;;;11.05;70.02;100833.78;5135930;27;20130;-72
2022/06/21 06:07:51;;;;;;;16.10;3.33;;;;;;;11.10;69.94;100834.16;5135946;27;20043;-71
2022/06/21 06:10:22;;;;;;;13.95;3.17;;;;;;;11.17;69.66;100823.56;5135810;27;20486;-71
2022/06/21 06:12:55;;;;;;;21.35;3.55;;;;;;;11.14;69.64;100832.81;5135510;27;20409;-71
2022/06/21 06:15:33;;;;;;;13.52;3.30;;;;;;;10.97;69.93;100837.25;5135507;27;20075;-71
2022/06/21 06:18:11;;;;;;;13.82;2.67;;;;;;;11.04;69.22;100839.31;5135095;27;20082;-72
2022/06/21 06:20:46;;;;;;;14.00;3.25;;;;;;;11.04;69.26;100840.16;5136298;27;20534;-72
2022/06/21 06:23:28;;;;;;;17.52;4.25;;;;;;;11.36;68.50;100835.91;5134971;27;20142;-72
2022/06/21 06:26:04;;;;;;;11.75;2.78;;;;;;;11.42;68.60;100830.72;5134724;27;20087;-72
2022/06/21 06:29:12;;;;;;;14.50;2.92;;;;;;;11.51;68.27;100831.59;5135923;27;20448;-72
2022/06/21 06:31:50;;;;;;;18.50;3.35;;;;;;;11.30;67.94;100828.50;5115691;27;20485;-72
2022/06/21 06:34:31;;;;;;;16.52;3.30;;;;;;;11.41;67.34;100831.75;5135047;27;20126;-72
2022/06/21 06:37:06;;;;;;;17.00;3.72;;;;;;;11.56;67.31;100828.44;5135613;27;20105;-72
2022/06/21 06:39:34;;;;;;;13.13;2.78;;;;;;;11.67;67.11;100831.66;5134732;27;20083;-72
2022/06/21 06:42:31;;;;;;;10.93;3.05;;;;;;;11.77;66.43;100826.16;5135561;27;20039;-72
2022/06/21 06:45:11;;;;;;;15.70;2.90;;;;;;;11.96;65.12;100829.53;5128952;27;20467;-72
2022/06/21 06:47:44;;;;;;;15.50;3.53;;;;;;;12.27;64.11;100833.22;5135120;27;20538;-72
2022/06/21 06:50:16;;;;;;;20.17;3.28;;;;;;;12.38;63.55;100832.91;5134801;27;20047;-72
2022/06/21 06:53:03;;;;;;;13.18;2.67;;;;;;;12.54;63.36;100844.66;5117156;27;20069;-72
2022/06/21 06:55:37;;;;;;;9.65;2.50;;;;;;;12.82;62.10;100843.28;5134733;27;20479;-73
2022/06/21 06:58:35;;;;;;;13.43;2.53;;;;;;;13.03;60.72;100833.78;5134902;27;20051;-73
2022/06/21 07:01:29;;;;;;;12.05;2.70;;;;;;;13.19;59.91;100832.91;5134445;27;20138;-73
2022/06/21 07:04:00;;;;;;;17.40;2.60;;;;;;;13.53;58.67;100828.03;5134198;27;20100;-73
2022/06/21 07:06:44;;;;;;;14.18;2.22;;;;;;;14.02;57.80;100832.28;5134660;27;20043;-73
2022/06/21 07:09:19;;;;;;;8.57;2.08;;;;;;;14.54;56.50;100826.09;5134792;28;20134;-73
2022/06/21 07:11:59;;;;;;;10.55;2.50;;;;;;;14.89;55.19;100839.94;5134585;28;20055;-73
2022/06/21 07:14:28;;;;;;;17.10;3.05;;;;;;;15.17;53.02;100840.13;5134523;28;20620;-73
2022/06/21 07:17:36;;;;;;;11.07;2.45;;;;;;;15.54;51.31;100828.31;5134730;28;20100;-73
2022/06/21 07:20:15;;;;;;;11.25;2.45;;;;;;;15.40;51.24;100829.19;5134463;28;20043;-73
2022/06/21 07:22:43;;;;;;;13.13;3.65;;;;;;;15.95;49.51;100833.13;5135095;28;20078;-72
2022/06/21 07:25:26;;;;;;;10.30;3.88;;;;;;;16.60;47.96;100837.50;5134194;28;20138;-73
2022/06/21 07:27:57;;;;;;;11.27;3.60;;;;;;;16.66;47.28;100835.88;5135407;28;20066;-72
2022/06/21 07:30:31;;;;;;;10.02;3.55;;;;;;;17.12;46.31;100829.88;5134688;28;20543;-73
2022/06/21 07:33:08;;;;;;;13.43;2.25;;;;;;;17.57;44.99;100827.59;5134281;28;20141;-73
2022/06/21 07:35:44;;;;;;;8.95;2.33;;;;;;;18.18;43.43;100813.16;5134402;28;20134;-72
2022/06/21 07:38:14;;;;;;;10.23;1.75;;;;;;;18.31;42.67;100813.16;5134649;28;20157;-73
2022/06/21 07:40:49;;;;;;;11.70;2.33;;;;;;;18.54;42.80;100813.53;5116843;28;20051;-73
2022/06/21 07:43:39;;;;;;;11.23;2.22;;;;;;;18.78;42.34;100805.75;5134207;28;20047;-73
2022/06/21 07:46:08;;;;;;;11.43;2.72;;;;;;;19.21;40.62;100811.53;5134186;28;20134;-73
2022/06/21 07:48:40;;;;;;;8.90;2.05;;;;;;;19.21;40.23;100807.97;5134767;28;20513;-73
2022/06/21 07:51:18;;;;;;;8.85;1.70;;;;;;;18.96;40.31;100814.09;5135184;28;20086;-73
2022/06/21 07:53:58;;;;;;;8.35;1.80;;;;;;;19.01;39.80;100811.59;5134605;28;20043;-74
2022/06/21 07:56:34;;;;;;;7.13;1.90;;;;;;;19.48;38.40;100811.38;5136906;27;20444;-74
2022/06/21 07:59:15;;;;;;;9.93;3.05;;;;;;;19.08;39.19;100797.16;5139165;27;20413;-75
2022/06/21 08:07:45;;;;;;;16.08;2.25;;;;;;;20.17;35.96;100818.72;5138359;27;20130;-73
2022/06/21 08:10:23;;;;;;;9.07;1.60;;;;;;;20.40;35.04;100822.78;5138259;27;20150;-74
2022/06/21 08:12:50;;;;;;;7.50;1.65;;;;;;;20.67;34.33;100829.66;5138256;27;20134;-74
2022/06/21 08:15:18;;;;;;;8.25;1.98;;;;;;;20.49;35.01;100832.34;5138616;27;20054;-73
2022/06/21 08:17:52;;;;;;;6.93;1.95;;;;;;;19.69;35.85;100826.59;5138629;27;20154;-74
2022/06/21 08:20:35;;;;;;;8.65;2.10;;;;;;;20.36;35.18;100830.53;5137654;27;20119;-73
2022/06/21 08:23:19;;;;;;;10.98;1.92;;;;;;;20.48;35.48;100832.56;5138390;27;20074;-74
2022/06/21 08:25:59;;;;;;;10.77;2.00;;;;;;;21.08;34.00;100827.34;5129890;27;20047;-73
2022/06/21 08:28:34;;;;;;;9.75;2.10;;;;;;;21.22;33.03;100828.88;5137534;27;20138;-74
2022/06/21 08:31:08;;;;;;;9.32;2.00;;;;;;;20.95;33.24;100824.75;5137405;27;20091;-73
2022/06/21 08:33:35;;;;;;;11.50;2.20;;;;;;;20.10;33.73;100817.13;5137790;27;20463;-73
2022/06/21 08:36:11;;;;;;;8.77;1.52;;;;;;;20.61;33.23;100829.72;5137621;27;20449;-73
2022/06/21 08:38:45;;;;;;;11.00;2.28;;;;;;;21.04;32.62;100828.84;5137747;27;20134;-73
2022/06/21 08:41:51;;;;;;;6.35;1.30;;;;;;;21.10;32.03;100817.84;5137510;27;20130;-73
2022/06/21 08:44:08;;;;;;;5.85;1.80;;;;;;;20.33;33.22;100825.53;5137303;27;20047;-73
2022/06/21 08:46:40;;;;;;;3.70;1.10;;;;;;;20.47;33.00;100825.44;5137450;27;20163;-73
2022/06/21 08:49:51;;;;;;;9.40;2.08;;;;;;;20.16;33.56;100827.13;5137484;27;20456;-73
2022/06/21 08:52:24;;;;;;;6.57;1.83;;;;;;;21.53;31.60;100822.41;5137590;27;20104;-73
2022/06/21 08:55:12;;;;;;;8.50;1.42;;;;;;;21.38;31.84;100820.06;5137086;27;20051;-73
2022/06/21 08:58:05;;;;;;;9.07;1.95;;;;;;;21.21;31.98;100815.44;5137160;27;20043;-73
2022/06/21 09:00:37;;;;;;;5.60;1.52;;;;;;;20.56;32.76;100807.72;5137823;27;20122;-73
2022/06/21 09:03:30;;;;;;;7.70;2.35;;;;;;;20.50;33.61;100808.66;5137066;27;20071;-73
2022/06/21 09:06:18;;;;;;;7.53;1.58;;;;;;;21.27;32.06;100812.66;5102666;27;20066;-73
2022/06/21 09:09:04;;;;;;;11.20;1.80;;;;;;;22.29;30.71;100809.94;5128149;27;20069;-72
2022/06/21 09:11:49;;;;;;;7.05;1.65;;;;;;;22.35;30.15;100818.25;5136722;27;20096;-72
2022/06/21 09:14:38;;;;;;;12.80;2.00;;;;;;;21.35;31.98;100806.84;5136902;27;20082;-72
2022/06/21 09:17:42;;;;;;;4.85;1.38;;;;;;;22.23;30.62;100810.88;5136955;27;20142;-72
2022/06/21 09:20:23;;;;;;;8.63;1.52;;;;;;;22.82;29.79;100819.13;5136852;27;20099;-72
2022/06/21 09:23:29;;;;;;;9.30;1.42;;;;;;;22.23;29.22;100819.06;5137591;27;20073;-72
2022/06/21 09:26:09;;;;;;;7.97;1.83;;;;;;;22.00;30.24;100811.66;5136594;27;20094;-72
2022/06/21 09:28:52;;;;;;;13.10;2.25;;;;;;;22.37;30.73;100807.91;5136876;27;20130;-71
2022/06/21 09:31:27;;;;;;;4.75;1.58;;;;;;;23.51;28.40;100813.75;5136670;27;20461;-71
2022/06/21 09:34:01;;;;;;;3.42;1.20;;;;;;;24.23;27.56;100826.00;5136354;27;20047;-72
2022/06/21 09:36:53;;;;;;;3.95;1.33;;;;;;;24.09;27.64;100814.53;5118487;27;20133;-71
2022/06/21 09:39:41;;;;;;;8.05;1.80;;;;;;;23.01;28.38;100812.41;5136886;27;20050;-71
2022/06/21 09:42:27;;;;;;;6.63;1.73;;;;;;;23.63;27.64;100808.19;5118496;27;20130;-71
2022/06/21 09:45:33;;;;;;;4.70;1.48;;;;;;;23.33;28.49;100812.03;5137147;27;20043;-71
2022/06/21 09:48:15;;;;;;;6.80;1.90;;;;;;;23.41;28.47;100816.28;5136508;27;20043;-71
2022/06/21 09:51:05;;;;;;;5.68;1.77;;;;;;;23.87;27.12;100811.69;5136633;27;20043;-72
2022/06/21 09:53:58;;;;;;;5.13;1.48;;;;;;;24.09;27.32;100811.78;5118434;27;20197;-71
2022/06/21 09:56:42;;;;;;;6.63;1.40;;;;;;;24.47;27.01;100808.31;5136104;27;20383;-71
2022/06/21 09:59:19;;;;;;;5.75;1.40;;;;;;;25.19;26.40;100814.81;5135912;27;20043;-71
2022/06/21 10:02:05;;;;;;;5.57;1.55;;;;;;;24.94;26.62;100807.06;5135920;27;20087;-71
2022/06/21 10:05:06;;;;;;;3.10;1.15;;;;;;;24.88;26.32;100814.38;5136217;27;20483;-71
2022/06/21 10:07:47;;;;;;;3.15;1.20;;;;;;;24.62;27.34;100805.00;5136486;27;20074;-71
2022/06/21 10:10:23;;;;;;;3.90;1.23;;;;;;;25.11;26.00;100808.69;5135728;27;20062;-70
2022/06/21 10:13:02;;;;;;;7.05;1.50;;;;;;;24.13;27.12;100802.84;5136682;27;20471;-70
2022/06/21 10:15:50;;;;;;;5.03;1.67;;;;;;;25.27;25.65;100808.88;5135972;27;20133;-70
2022/06/21 10:18:25;;;;;;;10.73;1.80;;;;;;;25.51;25.39;100814.91;5136146;27;20456;-72
2022/06/21 10:21:06;;;;;;;5.50;1.58;;;;;;;26.35;23.88;100797.91;5137379;27;20438;-72
2022/06/21 10:23:49;;;;;;;7.22;1.85;;;;;;;24.05;26.00;100799.66;5137365;27;20495;-71
2022/06/21 10:26:49;;;;;;;9.02;1.55;;;;;;;24.89;25.00;100814.16;5136488;27;20051;-72
2022/06/21 10:29:53;;;;;;;6.13;1.90;;;;;;;24.62;25.37;100811.28;5136670;27;20087;-72
2022/06/21 10:32:23;;;;;;;5.07;1.65;;;;;;;24.60;25.19;100812.63;5133441;27;20130;-72
2022/06/21 10:34:59;;;;;;;3.50;1.33;;;;;;;25.59;24.96;100820.81;5137789;27;20058;-72
2022/06/21 10:37:31;;;;;;;5.50;1.25;;;;;;;26.18;24.02;100810.97;5137207;27;20435;-72
2022/06/21 10:40:07;;;;;;;3.83;1.30;;;;;;;24.51;26.00;100814.13;5136743;27;20051;-72
2022/06/21 10:42:58;;;;;;;4.05;1.42;;;;;;;24.17;25.23;100817.69;5137093;27;20137;-72
2022/06/21 10:45:39;;;;;;;7.05;1.70;;;;;;;24.06;25.76;100818.59;5136874;27;20043;-72
2022/06/21 10:48:15;;;;;;;7.35;1.83;;;;;;;23.91;26.31;100813.66;5136551;27;20075;-72
2022/06/21 10:50:56;;;;;;;7.20;2.72;;;;;;;23.44;26.68;100813.88;5136916;27;20047;-72
2022/06/21 10:53:38;;;;;;;3.13;1.40;;;;;;;23.34;26.25;100815.59;5136223;27;20143;-72
2022/06/21 10:59:09;;;;;;;5.25;1.13;;;;;;;22.61;27.40;100804.16;5135676;27;20086;-71
2022/06/21 11:01:55;;;;;;;4.63;1.30;;;;;;;22.65;26.48;100805.31;5135867;27;20082;-71
2022/06/21 11:04:22;;;;;;;3.60;1.30;;;;;;;22.66;26.78;100809.72;5135237;27;20054;-71
2022/06/21 11:07:00;;;;;;;6.45;1.40;;;;;;;22.35;28.01;100810.03;5135416;27;20087;-71
2022/06/21 11:09:39;;;;;;;4.22;1.20;;;;;;;22.70;27.30;100804.59;5135135;28;20093;-71
2022/06/21 11:15:28;;;;;;;7.18;2.20;;;;;;;21.33;28.40;100795.38;5135394;28;20101;-71
2022/06/21 11:18:09;;;;;;;11.80;1.40;;;;;;;21.80;28.10;100792.81;5135030;28;20138;-71
2022/06/21 11:20:55;;;;;;;;;;;;;;;21.66;28.30;100798.69;5135733;28;20141;-71
2022/06/21 11:23:34;;;;;;;3.95;1.10;;;;;;;21.79;27.80;100799.34;5134879;28;19955;-72
2022/06/21 11:26:31;;;;;;;5.43;1.42;;;;;;;22.01;27.34;100809.75;5134876;28;20054;-71
2022/06/21 11:29:16;;;;;;;6.40;3.78;;;;;;;22.01;27.08;100804.28;5134932;28;20051;-72
2022/06/21 11:31:45;;;;;;;10.82;1.55;;;;;;;22.42;26.87;100802.56;5137536;27;20093;-72
2022/06/21 11:34:47;;;;;;;5.28;1.02;;;;;;;22.34;27.04;100787.34;5138903;27;20051;-72
2022/06/21 11:37:22;;;;;;;;;;;;;;;22.32;27.68;100795.78;5140052;27;20063;-72
2022/06/21 11:39:58;;;;;;;7.80;1.55;;;;;;;21.83;27.97;100799.72;5139052;27;19967;-72
2022/06/21 11:42:33;;;;;;;5.60;1.50;;;;;;;21.32;29.39;100793.69;5138655;27;20078;-72
2022/06/21 11:45:34;;;;;;;4.38;1.30;;;;;;;20.88;29.43;100801.13;5138953;27;20047;-72
2022/06/21 11:48:38;;;;;;;10.57;1.60;;;;;;;20.92;29.44;100798.78;5139407;27;20458;-72
2022/06/21 11:51:32;;;;;;;10.80;1.38;;;;;;;20.84;29.25;100793.63;5139638;27;20090;-72
2022/06/21 11:54:18;;;;;;;7.63;1.25;;;;;;;20.71;29.27;100791.88;5138503;27;20106;-72
2022/06/21 11:57:14;;;;;;;5.65;1.50;;;;;;;20.66;29.46;100789.81;5138716;27;20134;-72
2022/06/21 11:59:58;;;;;;;5.22;1.38;;;;;;;20.80;29.74;100785.06;5138666;27;20107;-73
2022/06/21 12:02:38;;;;;;;6.45;2.20;;;;;;;20.76;30.11;100794.72;5138675;27;20133;-73
2022/06/21 12:05:40;;;;;;;4.70;1.48;;;;;;;20.62;29.75;100787.75;5139401;27;20133;-74
2022/06/21 12:08:18;;;;;;;;;;;;;;;20.67;30.20;100791.50;5139063;27;20047;-73
2022/06/21 12:10:59;;;;;;;5.15;1.10;;;;;;;20.71;29.94;100788.31;5138246;27;20017;-73
2022/06/21 12:13:37;;;;;;;7.03;1.88;;;;;;;20.76;29.43;100799.34;5138716;27;20060;-73
2022/06/21 12:16:25;;;;;;;6.57;1.35;;;;;;;20.54;29.60;100791.63;5139255;27;20063;-73
2022/06/21 12:18:59;;;;;;;5.15;1.55;;;;;;;20.67;29.38;100790.66;5139071;27;20051;-73
2022/06/21 12:21:29;;;;;;;8.07;1.35;;;;;;;20.87;28.96;100787.69;5139000;27;20521;-73
2022/06/21 12:24:01;;;;;;;3.33;1.20;;;;;;;20.71;29.75;100786.41;5139034;27;20078;-74
2022/06/21 12:26:29;;;;;;;;;;;;;;;20.59;29.57;100780.88;5138999;27;20571;-73
2022/06/21 12:28:58;;;;;;;4.20;1.15;;;;;;;20.66;29.93;100778.06;5139865;27;20299;-73
2022/06/21 12:31:31;;;;;;;3.85;1.25;;;;;;;20.71;30.10;100770.06;5139121;27;20087;-73